Terminal Aerodrome Forecast
Issued by NWS

Home | Current Version | Previous Version | Text Only | Print | Product List | Glossary Off
Versions: 1 2 3 4 5 6 7 8 9 10 11 12 13 14 15 16 17 18 19 20 21

450
FTUS41 KCLE 200544
TAFFDY
TAF
KFDY 200544Z 2006/2106 05011KT P6SM SCT008 BKN018
      TEMPO 2006/2010 5SM BR BKN008
     FM201700 08011KT P6SM BKN035
     FM210200 11009KT 5SM -SHRA VCTS BKN035CB=

USA.gov is the U.S. government's official web portal to all federal, state and local government web resources and services.